createdAt,value
2023-04-14T00:02:13.393Z,14.01
2023-04-14T00:05:00.305Z,13.96
2023-04-14T00:07:56.478Z,13.82
2023-04-14T00:10:43.003Z,13.97
2023-04-14T00:13:29.372Z,13.97
2023-04-14T00:16:16.153Z,13.83
2023-04-14T00:19:02.988Z,13.95
2023-04-14T00:21:49.280Z,13.89
2023-04-14T00:24:43.289Z,13.84
2023-04-14T00:27:31.724Z,13.77
2023-04-14T00:30:17.965Z,13.74
2023-04-14T00:33:04.674Z,13.84
2023-04-14T00:35:50.910Z,13.83
2023-04-14T00:38:41.064Z,13.67
2023-04-14T00:41:36.231Z,13.73
2023-04-14T00:44:23.277Z,13.66
2023-04-14T00:47:09.904Z,13.66
2023-04-14T00:49:56.913Z,13.64
2023-04-14T00:52:48.230Z,13.50
2023-04-14T00:55:36.113Z,13.53
2023-04-14T00:58:22.645Z,13.52
2023-04-14T01:01:13.317Z,13.51
2023-04-14T01:04:00.309Z,13.38
2023-04-14T01:06:48.401Z,13.35
2023-04-14T01:09:34.857Z,13.25
2023-04-14T01:12:55.488Z,13.27
2023-04-14T01:15:52.107Z,13.26
2023-04-14T01:18:50.092Z,13.06
2023-04-14T01:21:44.706Z,13.13
2023-04-14T01:24:43.543Z,13.18
2023-04-14T01:27:30.685Z,13.19
2023-04-14T01:30:46.084Z,13.12
2023-04-14T01:33:34.913Z,13.10
2023-04-14T01:36:27.387Z,13.08
2023-04-14T01:39:16.624Z,12.98
2023-04-14T01:42:06.772Z,13.07
2023-04-14T01:44:57.740Z,13.04
2023-04-14T01:47:44.377Z,12.97
2023-04-14T01:50:31.811Z,12.97
2023-04-14T01:53:20.117Z,12.92
2023-04-14T01:56:08.464Z,12.89
2023-04-14T01:58:55.799Z,12.95
2023-04-14T02:01:43.209Z,12.85
2023-04-14T02:04:30.252Z,12.93
2023-04-14T02:07:17.750Z,12.97
2023-04-14T02:10:06.143Z,12.99
2023-04-14T02:12:55.763Z,13.02
2023-04-14T02:15:43.086Z,13.06
2023-04-14T02:18:31.665Z,13.03
2023-04-14T02:21:19.001Z,13.10
2023-04-14T02:24:05.464Z,13.04
2023-04-14T02:27:19.213Z,12.95
2023-04-14T02:30:14.504Z,12.98
2023-04-14T02:33:07.331Z,12.97
2023-04-14T02:36:04.725Z,12.90
2023-04-14T02:39:01.127Z,12.87
2023-04-14T02:41:49.209Z,12.84
2023-04-14T02:44:39.417Z,12.85
2023-04-14T02:47:38.918Z,12.88
2023-04-14T02:50:25.905Z,12.80
2023-04-14T02:53:26.812Z,12.80
2023-04-14T02:56:36.240Z,12.77
2023-04-14T02:59:23.599Z,12.73
2023-04-14T03:02:22.487Z,12.66
2023-04-14T03:05:18.391Z,12.70
2023-04-14T03:08:16.107Z,12.60
2023-04-14T03:11:06.824Z,12.50
2023-04-14T03:13:53.768Z,12.63
2023-04-14T03:16:40.604Z,12.62
2023-04-14T03:19:29.794Z,12.52
2023-04-14T03:22:18.637Z,12.62
2023-04-14T03:25:05.268Z,12.57
2023-04-14T03:27:52.654Z,12.46
2023-04-14T03:30:43.337Z,12.44
2023-04-14T03:33:31.181Z,12.51
2023-04-14T03:36:18.549Z,12.45
2023-04-14T03:39:06.024Z,12.27
2023-04-14T03:41:57.351Z,12.40
2023-04-14T03:44:50.048Z,12.36
2023-04-14T03:47:36.486Z,12.29
2023-04-14T03:50:23.974Z,12.22
2023-04-14T03:53:14.397Z,12.13
2023-04-14T03:56:01.447Z,12.22
2023-04-14T03:58:50.976Z,12.10
2023-04-14T04:01:37.853Z,12.08
2023-04-14T04:04:24.595Z,11.98
2023-04-14T04:07:14.410Z,11.86
2023-04-14T04:10:00.717Z,11.85
2023-04-14T04:12:48.051Z,12.02
2023-04-14T04:15:36.991Z,11.99
2023-04-14T04:18:27.316Z,12.00
2023-04-14T04:21:15.310Z,12.01
2023-04-14T04:24:05.584Z,11.93
2023-04-14T04:26:53.522Z,12.05
2023-04-14T04:29:41.117Z,12.03
2023-04-14T04:32:28.230Z,11.94
2023-04-14T04:35:15.670Z,12.05
2023-04-14T04:38:05.719Z,12.12
2023-04-14T04:40:52.475Z,12.09
2023-04-14T04:43:47.872Z,12.07
2023-04-14T04:46:46.298Z,12.09
2023-04-14T04:49:34.673Z,12.14
2023-04-14T04:52:32.122Z,12.25
2023-04-14T04:55:29.965Z,12.25
2023-04-14T04:58:19.027Z,12.30
2023-04-14T05:01:11.965Z,12.32
2023-04-14T05:04:07.012Z,12.43
2023-04-14T05:06:56.346Z,12.52
2023-04-14T05:09:42.774Z,12.61
2023-04-14T05:12:29.704Z,12.71
2023-04-14T05:15:16.157Z,12.62
2023-04-14T05:18:03.003Z,12.68
2023-04-14T05:20:52.578Z,12.66
2023-04-14T05:23:40.576Z,12.72
2023-04-14T05:26:49.008Z,12.80
2023-04-14T05:29:32.714Z,12.87
2023-04-14T05:32:19.386Z,12.80
2023-04-14T05:35:05.951Z,12.89
2023-04-14T05:37:52.082Z,12.80
2023-04-14T05:40:38.737Z,12.96
2023-04-14T05:43:24.996Z,12.89
2023-04-14T05:46:15.205Z,12.93
2023-04-14T05:49:03.404Z,12.74
2023-04-14T05:51:55.645Z,12.79
2023-04-14T05:54:46.862Z,12.83
2023-04-14T05:57:33.117Z,12.70
2023-04-14T06:00:20.063Z,12.72
2023-04-14T06:03:35.447Z,12.65
2023-04-14T06:07:19.287Z,12.70
2023-04-14T06:10:12.145Z,12.69
2023-04-14T06:12:58.473Z,12.64
2023-04-14T06:15:45.023Z,12.67
2023-04-14T06:18:30.969Z,12.49
2023-04-14T06:21:17.387Z,12.38
2023-04-14T06:24:03.407Z,12.40
2023-04-14T06:27:19.916Z,12.39
2023-04-14T06:30:07.198Z,12.38
2023-04-14T06:33:04.841Z,12.32
2023-04-14T06:42:59.785Z,12.57
2023-04-14T06:50:09.924Z,12.65
2023-04-14T06:53:09.686Z,12.48
2023-04-14T06:56:14.207Z,12.52
2023-04-14T06:59:05.646Z,12.55
2023-04-14T07:01:56.162Z,12.48
2023-04-14T07:04:52.983Z,12.22
2023-04-14T07:07:40.848Z,12.25
2023-04-14T07:10:38.590Z,12.02
2023-04-14T07:13:34.463Z,12.08
2023-04-14T07:16:27.068Z,11.90
2023-04-14T07:19:16.347Z,11.93
2023-04-14T07:22:07.963Z,11.94
2023-04-14T07:25:06.593Z,11.78
2023-04-14T07:28:06.600Z,11.85
2023-04-14T07:31:15.470Z,11.66
2023-04-14T07:34:25.893Z,11.88
2023-04-14T07:40:17.417Z,11.66
2023-04-14T07:43:04.462Z,11.50
2023-04-14T07:45:59.078Z,11.48
2023-04-14T07:48:48.363Z,11.43
2023-04-14T07:51:39.892Z,11.33
2023-04-14T07:54:37.717Z,11.11
2023-04-14T08:00:48.235Z,11.04
2023-04-14T08:03:49.490Z,11.11
2023-04-14T08:16:05.695Z,11.46
2023-04-14T08:27:46.554Z,11.43
2023-04-14T08:30:53.195Z,11.62
2023-04-14T08:34:04.052Z,11.47
2023-04-14T08:41:08.479Z,11.41
2023-04-14T08:45:02.414Z,11.49
2023-04-14T08:48:19.124Z,11.37
2023-04-14T08:51:29.236Z,11.52
2023-04-14T08:58:10.796Z,11.10
2023-04-14T09:01:13.543Z,11.12
2023-04-14T09:11:23.605Z,10.95
2023-04-14T09:14:55.731Z,10.88
2023-04-14T09:18:47.253Z,10.82
2023-04-14T09:22:10.276Z,10.95
2023-04-14T09:34:09.647Z,10.86
2023-04-14T09:40:50.797Z,11.39
2023-04-14T13:02:09.317Z,28.85
2023-04-14T13:05:07.343Z,28.40
2023-04-14T13:13:08.718Z,29.01
2023-04-14T13:16:14.586Z,29.29
2023-04-14T13:19:18.676Z,29.99
2023-04-14T13:22:32.548Z,30.23
2023-04-14T13:25:46.949Z,30.25
2023-04-14T13:28:45.125Z,29.81
2023-04-14T13:36:53.567Z,28.75
2023-04-14T13:40:40.556Z,28.80
2023-04-14T13:54:18.018Z,29.05
2023-04-14T14:25:19.655Z,30.80
2023-04-14T14:28:53.730Z,30.94
2023-04-14T14:32:41.228Z,31.36
2023-04-14T14:50:56.139Z,30.12
2023-04-14T15:07:41.244Z,30.20
2023-04-14T15:34:28.508Z,25.44
2023-04-14T15:40:51.180Z,24.23
2023-04-14T15:43:52.843Z,23.62
2023-04-14T15:47:04.326Z,23.28
2023-04-14T15:50:08.824Z,22.89
2023-04-14T15:53:00.512Z,22.45
2023-04-14T15:55:53.358Z,22.47
2023-04-14T15:58:41.869Z,21.92
2023-04-14T16:01:31.899Z,21.82
2023-04-14T16:04:20.020Z,21.78
2023-04-14T16:07:11.482Z,21.46
2023-04-14T16:10:01.115Z,20.95
2023-04-14T16:12:51.552Z,20.48
2023-04-14T16:15:44.342Z,20.12
2023-04-14T16:18:37.105Z,19.85
2023-04-14T16:21:32.909Z,19.44
2023-04-14T16:24:20.764Z,19.16
2023-04-14T16:27:19.451Z,18.75
2023-04-14T17:00:09.284Z,16.05
2023-04-14T17:02:40.460Z,15.83
2023-04-14T17:05:43.607Z,15.70
2023-04-14T17:12:59.124Z,15.35
2023-04-14T17:16:56.961Z,15.30
2023-04-14T17:24:48.453Z,14.63
2023-04-14T17:30:59.319Z,14.33
2023-04-14T17:45:58.292Z,14.07
2023-04-14T18:16:13.535Z,12.80
2023-04-14T18:19:23.800Z,12.79
2023-04-14T19:01:08.530Z,11.56
2023-04-14T19:08:15.768Z,11.43
2023-04-14T19:11:38.504Z,11.20
2023-04-14T19:16:18.067Z,11.05
2023-04-14T19:28:36.827Z,11.07
2023-04-14T19:36:32.726Z,11.03
2023-04-14T19:39:23.174Z,10.99
2023-04-14T19:53:28.934Z,11.15
2023-04-14T19:56:36.791Z,10.86
2023-04-14T19:59:36.560Z,10.93
2023-04-14T20:02:30.241Z,11.00
2023-04-14T20:15:36.334Z,11.18
2023-04-14T20:28:25.355Z,10.96
2023-04-14T21:05:03.384Z,10.29
2023-04-14T21:18:07.450Z,9.91
2023-04-14T21:44:12.782Z,9.59
2023-04-14T21:47:14.446Z,9.59
2023-04-14T21:50:16.840Z,9.75
2023-04-14T21:53:09.019Z,9.80
2023-04-14T21:56:11.070Z,9.76
2023-04-14T21:59:07.919Z,9.57
2023-04-14T22:02:01.391Z,9.73
2023-04-14T22:05:12.406Z,9.52
2023-04-14T22:11:10.566Z,9.51
2023-04-14T22:14:02.384Z,9.45
2023-04-14T22:16:55.592Z,9.29
2023-04-14T22:19:55.174Z,9.21
2023-04-14T22:22:46.799Z,9.23
2023-04-14T22:25:37.325Z,9.21
2023-04-14T22:28:24.003Z,9.18
2023-04-14T22:31:13.696Z,9.16
2023-04-14T22:34:09.582Z,8.79
2023-04-14T22:37:03.050Z,8.88
2023-04-14T22:40:19.128Z,9.05
2023-04-14T22:43:39.629Z,9.03
2023-04-14T22:46:39.301Z,8.73
2023-04-14T22:58:01.493Z,8.74
2023-04-14T23:01:22.487Z,8.68
2023-04-14T23:05:31.923Z,8.86
2023-04-14T23:12:57.346Z,8.76
2023-04-14T23:16:03.443Z,8.74
2023-04-14T23:19:32.616Z,8.86
2023-04-14T23:23:20.814Z,8.52
2023-04-14T23:26:39.515Z,8.63
2023-04-14T23:30:02.357Z,8.66
2023-04-14T23:33:33.624Z,8.83
2023-04-14T23:37:37.086Z,8.83
2023-04-14T23:48:13.044Z,8.53
2023-04-14T23:55:05.445Z,8.50
2023-04-14T23:58:08.001Z,8.78
